createdAt,value
2023-06-26T00:01:04.047Z,20.94
2023-06-26T00:03:33.148Z,20.96
2023-06-26T00:06:01.869Z,20.93
2023-06-26T00:08:29.749Z,21.03
2023-06-26T00:10:57.520Z,21.06
2023-06-26T00:13:26.492Z,21.06
2023-06-26T00:15:54.077Z,21.00
2023-06-26T00:18:24.206Z,20.98
2023-06-26T00:20:52.061Z,20.84
2023-06-26T00:23:20.278Z,20.84
2023-06-26T00:25:47.838Z,20.75
2023-06-26T00:28:15.351Z,20.72
2023-06-26T00:30:42.874Z,20.86
2023-06-26T00:33:10.385Z,20.65
2023-06-26T00:35:39.237Z,20.57
2023-06-26T00:38:06.765Z,20.56
2023-06-26T00:40:34.337Z,20.56
2023-06-26T00:43:04.943Z,20.55
2023-06-26T00:45:42.249Z,20.48
2023-06-26T00:48:13.599Z,20.52
2023-06-26T00:50:42.656Z,20.43
2023-06-26T00:53:11.314Z,20.41
2023-06-26T00:55:38.997Z,20.20
2023-06-26T00:58:06.747Z,20.16
2023-06-26T01:00:34.314Z,20.14
2023-06-26T01:03:01.969Z,20.17
2023-06-26T01:05:30.438Z,20.00
2023-06-26T01:07:59.568Z,19.95
2023-06-26T01:10:28.664Z,19.99
2023-06-26T01:12:56.241Z,20.10
2023-06-26T01:15:23.810Z,20.04
2023-06-26T01:17:53.672Z,19.93
2023-06-26T01:20:21.778Z,19.91
2023-06-26T01:23:01.983Z,19.93
2023-06-26T01:25:39.664Z,19.97
2023-06-26T01:28:09.212Z,19.96
2023-06-26T01:30:41.079Z,19.94
2023-06-26T01:33:09.080Z,19.91
2023-06-26T01:35:36.767Z,19.87
2023-06-26T01:38:14.187Z,19.92
2023-06-26T01:40:41.896Z,19.85
2023-06-26T01:43:17.587Z,19.89
2023-06-26T01:45:48.231Z,19.86
2023-06-26T01:48:18.852Z,19.84
2023-06-26T01:50:46.492Z,19.79
2023-06-26T01:53:17.328Z,19.70
2023-06-26T01:55:48.989Z,19.64
2023-06-26T01:58:19.413Z,19.56
2023-06-26T02:00:47.688Z,19.53
2023-06-26T02:03:15.275Z,19.46
2023-06-26T02:05:42.833Z,19.44
2023-06-26T02:08:11.187Z,19.42
2023-06-26T02:10:38.938Z,19.41
2023-06-26T02:13:06.679Z,19.40
2023-06-26T02:15:35.530Z,19.39
2023-06-26T02:18:03.075Z,19.34
2023-06-26T02:20:30.612Z,19.29
2023-06-26T02:22:58.152Z,19.26
2023-06-26T02:25:25.727Z,19.27
2023-06-26T02:27:53.712Z,19.27
2023-06-26T02:30:21.386Z,19.22
2023-06-26T02:32:50.294Z,19.30
2023-06-26T02:35:19.994Z,19.23
2023-06-26T02:37:47.504Z,19.23
2023-06-26T02:40:15.378Z,19.20
2023-06-26T02:42:43.208Z,19.18
2023-06-26T02:45:11.670Z,19.14
2023-06-26T02:47:40.642Z,19.13
2023-06-26T02:50:11.931Z,19.05
2023-06-26T02:53:04.100Z,19.05
2023-06-26T02:55:31.668Z,19.00
2023-06-26T02:57:59.562Z,18.98
2023-06-26T03:00:27.156Z,18.99
2023-06-26T03:02:56.143Z,18.94
2023-06-26T03:05:26.251Z,18.96
2023-06-26T03:07:54.369Z,18.92
2023-06-26T03:10:22.116Z,18.88
2023-06-26T03:12:50.421Z,18.80
2023-06-26T03:15:20.427Z,18.82
2023-06-26T03:17:48.058Z,18.80
2023-06-26T03:20:26.058Z,18.79
2023-06-26T03:22:55.727Z,18.75
2023-06-26T03:25:24.369Z,18.77
2023-06-26T03:27:59.951Z,18.72
2023-06-26T03:30:28.523Z,18.67
2023-06-26T03:32:58.923Z,18.65
2023-06-26T03:35:27.805Z,18.60
2023-06-26T03:37:55.576Z,18.57
2023-06-26T03:40:24.550Z,18.52
2023-06-26T03:42:52.379Z,18.50
2023-06-26T03:45:20.933Z,18.57
2023-06-26T03:47:50.528Z,18.44
2023-06-26T03:50:18.299Z,18.42
2023-06-26T03:52:47.310Z,18.41
2023-06-26T03:55:16.832Z,18.40
2023-06-26T03:57:49.046Z,18.47
2023-06-26T04:00:17.578Z,18.50
2023-06-26T04:02:45.264Z,18.48
2023-06-26T04:05:14.181Z,18.43
2023-06-26T04:07:41.772Z,18.52
2023-06-26T04:10:11.586Z,18.61
2023-06-26T04:12:39.254Z,18.62
2023-06-26T04:15:08.010Z,18.60
2023-06-26T04:17:35.727Z,18.63
2023-06-26T04:20:06.030Z,18.68
2023-06-26T04:22:33.561Z,18.70
2023-06-26T04:25:03.934Z,18.81
2023-06-26T04:27:35.394Z,18.86
2023-06-26T04:30:03.857Z,18.87
2023-06-26T04:32:31.423Z,18.90
2023-06-26T04:34:58.990Z,18.97
2023-06-26T04:37:26.543Z,18.98
2023-06-26T04:39:56.308Z,19.00
2023-06-26T04:42:23.893Z,19.05
2023-06-26T04:44:52.773Z,19.14
2023-06-26T04:47:20.383Z,19.24
2023-06-26T04:49:47.988Z,19.38
2023-06-26T04:52:16.013Z,19.41
2023-06-26T04:54:43.596Z,19.41
2023-06-26T04:57:12.629Z,19.54
2023-06-26T04:59:40.215Z,19.57
2023-06-26T05:02:09.325Z,19.60
2023-06-26T05:04:36.968Z,19.67
2023-06-26T05:07:05.959Z,19.79
2023-06-26T05:09:33.538Z,19.86
2023-06-26T05:12:01.215Z,19.85
2023-06-26T05:14:28.760Z,19.89
2023-06-26T05:16:56.318Z,19.98
2023-06-26T05:19:25.168Z,20.09
2023-06-26T05:21:53.165Z,20.24
2023-06-26T05:24:22.649Z,20.31
2023-06-26T05:26:52.496Z,20.36
2023-06-26T05:29:20.505Z,20.41
2023-06-26T05:31:49.111Z,20.49
2023-06-26T05:34:17.455Z,20.57
2023-06-26T05:36:46.497Z,20.67
2023-06-26T05:39:14.673Z,20.74
2023-06-26T05:41:42.701Z,20.83
2023-06-26T05:44:10.220Z,20.89
2023-06-26T05:46:37.741Z,21.01
2023-06-26T05:49:05.288Z,21.04
2023-06-26T05:51:33.263Z,21.10
2023-06-26T05:54:02.633Z,21.15
2023-06-26T05:56:30.267Z,21.21
2023-06-26T05:58:58.517Z,21.26
2023-06-26T06:01:26.114Z,21.30
2023-06-26T06:03:54.053Z,21.33
2023-06-26T06:06:21.695Z,21.40
2023-06-26T06:08:49.855Z,21.51
2023-06-26T06:11:18.784Z,21.53
2023-06-26T06:13:46.290Z,21.59
2023-06-26T06:16:13.826Z,21.66
2023-06-26T06:18:41.412Z,21.74
2023-06-26T06:21:08.924Z,21.79
2023-06-26T06:23:36.441Z,21.86
2023-06-26T06:26:03.998Z,21.88
2023-06-26T06:28:32.875Z,21.91
2023-06-26T06:31:00.391Z,21.97
2023-06-26T06:33:27.911Z,22.09
2023-06-26T06:35:55.459Z,22.17
2023-06-26T06:38:23.002Z,22.30
2023-06-26T06:40:50.505Z,22.43
2023-06-26T06:43:18.047Z,22.54
2023-06-26T06:45:47.148Z,22.71
2023-06-26T06:48:14.872Z,22.82
2023-06-26T06:50:42.493Z,22.98
2023-06-26T06:53:10.140Z,23.11
2023-06-26T06:55:37.664Z,23.25
2023-06-26T06:58:06.118Z,23.35
2023-06-26T07:00:33.993Z,23.43
2023-06-26T07:03:03.086Z,23.58
2023-06-26T07:05:30.716Z,23.76
2023-06-26T07:08:00.255Z,23.90
2023-06-26T07:10:29.532Z,24.06
2023-06-26T07:12:57.198Z,24.24
2023-06-26T07:15:25.109Z,24.37
2023-06-26T07:17:53.316Z,24.59
2023-06-26T07:20:22.218Z,24.72
2023-06-26T07:22:50.658Z,24.83
2023-06-26T07:25:18.404Z,24.99
2023-06-26T07:27:46.109Z,25.15
2023-06-26T07:30:14.186Z,25.27
2023-06-26T07:32:43.304Z,25.44
2023-06-26T07:35:10.925Z,25.59
2023-06-26T07:37:39.758Z,25.68
2023-06-26T07:40:08.068Z,25.62
2023-06-26T07:42:35.615Z,25.89
2023-06-26T07:45:03.154Z,25.95
2023-06-26T07:47:30.791Z,26.07
2023-06-26T07:49:58.516Z,26.17
2023-06-26T07:52:26.100Z,26.43
2023-06-26T07:54:54.966Z,26.44
2023-06-26T07:57:22.538Z,26.53
2023-06-26T07:59:50.063Z,26.81
2023-06-26T08:02:17.666Z,26.93
2023-06-26T08:04:45.832Z,26.85
2023-06-26T08:07:15.333Z,27.02
2023-06-26T08:09:43.027Z,27.23
2023-06-26T08:12:13.465Z,27.31
2023-06-26T08:14:41.231Z,27.49
2023-06-26T08:17:08.746Z,27.61
2023-06-26T08:19:36.279Z,27.73
2023-06-26T08:22:04.242Z,27.59
2023-06-26T08:24:31.850Z,27.89
2023-06-26T08:27:00.066Z,28.18
2023-06-26T08:29:29.326Z,28.34
2023-06-26T08:31:56.865Z,28.45
2023-06-26T08:34:24.573Z,28.70
2023-06-26T08:36:52.088Z,28.77
2023-06-26T08:39:19.953Z,28.68
2023-06-26T08:41:47.500Z,28.75
2023-06-26T08:44:15.091Z,28.80
2023-06-26T08:46:44.875Z,29.05
2023-06-26T08:49:16.909Z,29.01
2023-06-26T08:51:47.573Z,28.96
2023-06-26T08:54:18.017Z,28.87
2023-06-26T08:56:49.172Z,29.24
2023-06-26T08:59:17.676Z,29.52
2023-06-26T09:01:47.063Z,29.58
2023-06-26T09:04:15.276Z,29.58
2023-06-26T09:06:43.385Z,29.56
2023-06-26T09:09:11.605Z,29.78
2023-06-26T09:11:39.188Z,29.97
2023-06-26T09:14:08.290Z,29.98
2023-06-26T09:16:41.641Z,29.86
2023-06-26T09:19:13.654Z,30.02
2023-06-26T09:21:42.012Z,29.97
2023-06-26T09:24:10.460Z,30.05
2023-06-26T09:26:38.612Z,29.69
2023-06-26T09:29:07.196Z,29.56
2023-06-26T09:31:41.098Z,29.51
2023-06-26T09:34:09.993Z,29.46
2023-06-26T09:36:40.667Z,29.78
2023-06-26T09:39:11.984Z,29.89
2023-06-26T09:41:40.271Z,30.46
2023-06-26T09:44:08.838Z,30.31
2023-06-26T09:46:36.510Z,29.65
2023-06-26T09:49:06.827Z,29.84
2023-06-26T09:51:34.718Z,29.88
2023-06-26T09:54:04.120Z,29.83
2023-06-26T09:56:33.491Z,30.01
2023-06-26T09:59:03.032Z,30.30
2023-06-26T10:01:31.347Z,30.59
2023-06-26T10:03:59.815Z,30.78
2023-06-26T10:06:30.068Z,30.55
2023-06-26T10:08:58.681Z,30.61
2023-06-26T10:11:31.456Z,30.43
2023-06-26T10:14:12.267Z,30.50
2023-06-26T10:16:44.286Z,30.45
2023-06-26T10:19:12.876Z,30.38
2023-06-26T10:21:40.739Z,30.51
2023-06-26T10:24:09.050Z,30.83
2023-06-26T10:26:40.843Z,30.98
2023-06-26T10:29:09.284Z,31.09
2023-06-26T10:31:37.505Z,31.16
2023-06-26T10:34:05.235Z,31.29
2023-06-26T10:36:33.351Z,31.45
2023-06-26T10:39:06.174Z,31.62
2023-06-26T10:41:46.389Z,31.82
2023-06-26T10:44:24.322Z,30.97
2023-06-26T10:46:53.931Z,31.29
2023-06-26T10:49:22.257Z,31.37
2023-06-26T10:51:51.003Z,31.33
2023-06-26T10:54:20.092Z,31.47
2023-06-26T10:56:49.929Z,31.17
2023-06-26T10:59:19.553Z,31.28
2023-06-26T11:01:48.046Z,31.49
2023-06-26T11:04:18.317Z,31.42
2023-06-26T11:06:48.991Z,31.65
2023-06-26T11:09:19.842Z,31.73
2023-06-26T11:12:00.679Z,31.18
2023-06-26T11:14:28.990Z,30.81
2023-06-26T11:16:57.722Z,30.89
2023-06-26T11:19:27.898Z,31.01
2023-06-26T11:22:06.423Z,31.27
2023-06-26T11:24:34.710Z,31.50
2023-06-26T11:27:04.860Z,31.38
2023-06-26T11:29:34.418Z,31.40
2023-06-26T11:32:07.570Z,31.32
2023-06-26T11:34:36.080Z,31.66
2023-06-26T11:37:03.958Z,31.72
2023-06-26T11:39:31.714Z,31.82
2023-06-26T11:41:59.665Z,31.44
2023-06-26T11:44:31.728Z,31.57
2023-06-26T11:46:59.731Z,32.00
2023-06-26T11:49:27.758Z,32.05
2023-06-26T11:51:56.612Z,32.28
2023-06-26T11:54:28.495Z,32.51
2023-06-26T11:57:00.919Z,32.40
2023-06-26T11:59:35.101Z,32.24
2023-06-26T12:02:06.872Z,32.05
2023-06-26T12:04:35.296Z,32.25
2023-06-26T12:07:05.203Z,31.72
2023-06-26T12:09:34.669Z,31.86
2023-06-26T12:12:02.904Z,32.00
2023-06-26T12:14:32.365Z,32.19
2023-06-26T12:17:09.581Z,32.30
2023-06-26T12:19:39.245Z,32.51
2023-06-26T12:22:10.839Z,32.59
2023-06-26T12:24:39.571Z,32.35
2023-06-26T12:27:11.347Z,32.25
2023-06-26T12:29:41.026Z,32.25
2023-06-26T12:32:12.718Z,32.08
2023-06-26T12:34:41.045Z,32.05
2023-06-26T12:37:11.005Z,32.18
2023-06-26T12:39:48.889Z,31.93
2023-06-26T12:42:17.673Z,32.02
2023-06-26T12:44:45.413Z,31.87
2023-06-26T12:47:15.779Z,32.07
2023-06-26T12:49:45.386Z,31.96
2023-06-26T12:52:14.478Z,31.75
2023-06-26T12:54:43.515Z,31.57
2023-06-26T12:57:11.797Z,31.66
2023-06-26T12:59:39.968Z,31.64
2023-06-26T13:02:09.376Z,31.63
2023-06-26T13:04:40.716Z,31.72
2023-06-26T13:07:08.530Z,32.05
2023-06-26T13:09:37.829Z,31.81
2023-06-26T13:12:06.524Z,31.63
2023-06-26T13:14:34.343Z,31.58
2023-06-26T13:17:02.661Z,31.69
2023-06-26T13:19:30.888Z,31.79
2023-06-26T13:22:00.570Z,31.76
2023-06-26T13:24:28.375Z,31.74
2023-06-26T13:26:55.966Z,31.37
2023-06-26T13:29:23.790Z,31.23
2023-06-26T13:31:51.380Z,31.51
2023-06-26T13:34:23.860Z,31.57
2023-06-26T13:36:51.501Z,31.33
2023-06-26T13:39:20.377Z,31.56
2023-06-26T13:41:48.119Z,31.56
2023-06-26T13:44:27.238Z,31.44
2023-06-26T13:47:03.348Z,31.37
2023-06-26T13:49:31.732Z,31.08
2023-06-26T13:51:59.260Z,31.08
2023-06-26T13:54:28.389Z,31.12
2023-06-26T13:56:58.804Z,31.08
2023-06-26T13:59:27.067Z,31.09
2023-06-26T14:01:55.411Z,31.11
2023-06-26T14:04:23.142Z,31.12
2023-06-26T14:06:50.751Z,30.92
2023-06-26T14:09:18.416Z,31.26
2023-06-26T14:11:47.317Z,31.28
2023-06-26T14:14:14.843Z,31.23
2023-06-26T14:16:42.430Z,30.93
2023-06-26T14:19:16.257Z,30.79
2023-06-26T14:21:43.823Z,30.61
2023-06-26T14:24:11.703Z,30.49
2023-06-26T14:26:39.811Z,30.64
2023-06-26T14:29:09.400Z,30.65
2023-06-26T14:31:36.947Z,30.54
2023-06-26T14:34:04.782Z,30.65
2023-06-26T14:36:33.170Z,30.72
2023-06-26T14:39:01.436Z,30.51
2023-06-26T14:41:29.891Z,30.59
2023-06-26T14:43:57.905Z,30.48
2023-06-26T14:46:27.257Z,30.41
2023-06-26T14:48:56.871Z,30.42
2023-06-26T14:51:25.448Z,30.27
2023-06-26T14:53:53.078Z,30.17
2023-06-26T14:56:20.625Z,30.18
2023-06-26T14:58:48.805Z,30.07
2023-06-26T15:01:16.750Z,30.03
2023-06-26T15:03:45.680Z,29.97
2023-06-26T15:06:13.359Z,29.96
2023-06-26T15:08:40.971Z,30.02
2023-06-26T15:11:08.632Z,30.09
2023-06-26T15:13:36.230Z,30.15
2023-06-26T15:16:03.756Z,30.07
2023-06-26T15:18:31.450Z,30.03
2023-06-26T15:21:01.216Z,30.07
2023-06-26T15:23:28.763Z,29.91
2023-06-26T15:25:58.458Z,29.93
2023-06-26T15:28:25.975Z,29.83
2023-06-26T15:30:53.837Z,29.72
2023-06-26T15:33:21.349Z,29.48
2023-06-26T15:35:50.777Z,29.24
2023-06-26T15:38:19.703Z,29.14
2023-06-26T15:40:47.222Z,29.06
2023-06-26T15:43:14.783Z,28.86
2023-06-26T15:45:42.565Z,28.49
2023-06-26T15:48:10.366Z,28.26
2023-06-26T15:50:37.873Z,28.11
2023-06-26T15:53:06.720Z,27.80
2023-06-26T15:55:35.587Z,27.65
2023-06-26T15:58:03.137Z,27.66
2023-06-26T16:00:30.624Z,27.59
2023-06-26T16:02:58.225Z,27.50
2023-06-26T16:05:26.990Z,26.46
2023-06-26T16:07:57.186Z,26.07
2023-06-26T16:10:25.895Z,26.33
2023-06-26T16:12:56.458Z,26.52
2023-06-26T16:15:24.618Z,26.55
2023-06-26T16:17:52.178Z,26.64
2023-06-26T16:20:19.753Z,26.69
2023-06-26T16:22:47.475Z,26.74
2023-06-26T16:25:16.929Z,26.73
2023-06-26T16:27:45.199Z,26.68
2023-06-26T16:30:15.701Z,26.44
2023-06-26T16:32:44.402Z,26.57
2023-06-26T16:35:11.957Z,26.50
2023-06-26T16:37:40.476Z,26.14
2023-06-26T16:40:09.219Z,26.06
2023-06-26T16:42:36.751Z,26.38
2023-06-26T16:45:04.880Z,26.19
2023-06-26T16:47:37.621Z,26.26
2023-06-26T16:50:08.216Z,26.40
2023-06-26T16:52:37.485Z,26.49
2023-06-26T16:55:05.557Z,26.57
2023-06-26T16:57:33.059Z,26.67
2023-06-26T17:00:00.708Z,26.51
2023-06-26T17:02:30.843Z,26.35
2023-06-26T17:04:59.815Z,26.26
2023-06-26T17:07:28.148Z,26.22
2023-06-26T17:09:55.733Z,26.17
2023-06-26T17:12:23.523Z,26.09
2023-06-26T17:14:51.082Z,26.10
2023-06-26T17:17:19.496Z,26.07
2023-06-26T17:19:47.839Z,26.15
2023-06-26T17:22:16.680Z,25.89
2023-06-26T17:24:44.259Z,25.98
2023-06-26T17:27:12.540Z,25.78
2023-06-26T17:29:40.157Z,25.90
2023-06-26T17:32:08.831Z,25.96
2023-06-26T17:34:36.949Z,25.70
2023-06-26T17:37:05.390Z,25.85
2023-06-26T17:39:34.303Z,25.85
2023-06-26T17:42:03.109Z,25.92
2023-06-26T17:44:30.770Z,25.65
2023-06-26T17:46:58.868Z,25.54
2023-06-26T17:49:26.767Z,25.49
2023-06-26T17:51:56.545Z,25.46
2023-06-26T17:54:24.073Z,25.29
2023-06-26T17:56:53.189Z,25.31
2023-06-26T17:59:20.937Z,25.20
2023-06-26T18:01:49.124Z,25.29
2023-06-26T18:04:16.829Z,25.29
2023-06-26T18:06:44.453Z,25.23
2023-06-26T18:09:12.007Z,25.31
2023-06-26T18:11:39.600Z,25.33
2023-06-26T18:14:08.850Z,25.29
2023-06-26T18:16:36.417Z,25.29
2023-06-26T18:19:03.976Z,25.32
2023-06-26T18:21:31.529Z,25.29
2023-06-26T18:23:59.747Z,25.09
2023-06-26T18:26:27.293Z,25.10
2023-06-26T18:28:56.966Z,25.05
2023-06-26T18:31:25.964Z,25.05
2023-06-26T18:33:54.101Z,25.08
2023-06-26T18:36:21.935Z,25.09
2023-06-26T18:38:49.563Z,24.95
2023-06-26T18:41:17.607Z,24.60
2023-06-26T18:43:48.247Z,24.55
2023-06-26T18:46:15.903Z,24.63
2023-06-26T18:48:48.212Z,24.58
2023-06-26T18:51:15.775Z,24.56
2023-06-26T18:53:44.984Z,24.42
2023-06-26T18:56:12.546Z,24.46
2023-06-26T18:58:40.084Z,24.52
2023-06-26T19:01:08.293Z,24.51
2023-06-26T19:03:35.913Z,24.56
2023-06-26T19:06:05.403Z,24.55
2023-06-26T19:08:33.177Z,24.58
2023-06-26T19:11:00.893Z,24.43
2023-06-26T19:13:29.568Z,24.38
2023-06-26T19:15:57.175Z,24.29
2023-06-26T19:18:25.969Z,24.21
2023-06-26T19:20:53.473Z,24.23
2023-06-26T19:23:22.538Z,24.17
2023-06-26T19:25:50.112Z,24.00
2023-06-26T19:28:17.625Z,23.95
2023-06-26T19:30:46.755Z,23.89
2023-06-26T19:33:16.093Z,23.90
2023-06-26T19:35:45.625Z,23.89
2023-06-26T19:38:13.163Z,23.79
2023-06-26T19:40:42.319Z,23.86
2023-06-26T19:43:10.119Z,23.79
2023-06-26T19:45:37.903Z,23.76
2023-06-26T19:48:06.501Z,23.57
2023-06-26T19:50:34.069Z,23.63
2023-06-26T19:53:01.703Z,23.68
2023-06-26T19:58:10.824Z,23.70
2023-06-26T20:00:41.924Z,23.72
2023-06-26T20:03:09.519Z,23.59
2023-06-26T20:05:37.169Z,23.64
2023-06-26T20:08:05.230Z,23.66
2023-06-26T20:10:32.803Z,23.67
2023-06-26T20:13:00.318Z,23.69
2023-06-26T20:15:29.185Z,23.71
2023-06-26T20:17:56.762Z,23.71
2023-06-26T20:20:24.422Z,23.64
2023-06-26T20:22:53.800Z,23.61
2023-06-26T20:25:21.471Z,23.52
2023-06-26T20:27:49.023Z,23.47
2023-06-26T20:30:16.772Z,23.36
2023-06-26T20:32:46.077Z,23.28
2023-06-26T20:35:14.027Z,23.32
2023-06-26T20:37:42.160Z,23.15
2023-06-26T20:40:12.055Z,23.19
2023-06-26T20:42:41.028Z,23.18
2023-06-26T20:45:11.348Z,23.05
2023-06-26T20:47:43.218Z,22.84
2023-06-26T20:50:13.998Z,22.76
2023-06-26T20:52:44.254Z,22.65
2023-06-26T20:55:13.301Z,22.55
2023-06-26T20:57:41.815Z,22.60
2023-06-26T21:00:10.389Z,22.52
2023-06-26T21:02:38.204Z,22.54
2023-06-26T21:05:06.460Z,22.55
2023-06-26T21:07:35.579Z,22.42
2023-06-26T21:10:03.195Z,22.39
2023-06-26T21:12:30.778Z,22.51
2023-06-26T21:14:58.306Z,22.46
2023-06-26T21:17:26.840Z,22.53
2023-06-26T21:19:56.408Z,22.20
2023-06-26T21:22:23.956Z,22.21
2023-06-26T21:24:52.858Z,22.24
2023-06-26T21:27:20.407Z,22.11
2023-06-26T21:29:47.989Z,21.92
2023-06-26T21:32:15.666Z,21.96
2023-06-26T21:34:43.226Z,22.01
2023-06-26T21:37:10.748Z,21.89
2023-06-26T21:39:38.285Z,21.61
2023-06-26T21:42:09.554Z,21.69
2023-06-26T21:44:39.012Z,21.69
2023-06-26T21:47:06.753Z,21.23
2023-06-26T21:49:34.267Z,21.41
2023-06-26T21:52:01.803Z,21.51
2023-06-26T21:54:29.324Z,21.41
2023-06-26T21:56:57.386Z,21.39
2023-06-26T21:59:26.659Z,21.44
2023-06-26T22:01:54.224Z,21.27
2023-06-26T22:04:21.758Z,21.35
2023-06-26T22:06:49.315Z,21.29
2023-06-26T22:09:16.889Z,20.96
2023-06-26T22:11:44.423Z,21.18
2023-06-26T22:14:11.962Z,21.13
2023-06-26T22:16:40.901Z,21.29
2023-06-26T22:19:09.825Z,21.29
2023-06-26T22:21:37.765Z,21.27
2023-06-26T22:24:05.622Z,21.15
2023-06-26T22:26:33.265Z,21.22
2023-06-26T22:29:00.821Z,21.03
2023-06-26T22:31:28.340Z,21.13
2023-06-26T22:33:57.207Z,21.09
2023-06-26T22:36:24.720Z,20.97
2023-06-26T22:38:52.349Z,20.81
2023-06-26T22:41:19.887Z,20.48
2023-06-26T22:43:47.422Z,20.59
2023-06-26T22:46:14.983Z,20.53
2023-06-26T22:48:42.492Z,20.64
2023-06-26T22:51:11.362Z,20.71
2023-06-26T22:53:38.889Z,20.59
2023-06-26T22:56:07.096Z,20.44
2023-06-26T22:58:34.636Z,20.64
2023-06-26T23:01:02.311Z,20.57
2023-06-26T23:03:30.209Z,20.44
2023-06-26T23:05:59.022Z,20.68
2023-06-26T23:08:28.446Z,20.76
2023-06-26T23:10:55.968Z,20.68
2023-06-26T23:13:23.471Z,20.19
2023-06-26T23:15:50.993Z,19.99
2023-06-26T23:18:18.894Z,20.22
2023-06-26T23:20:46.400Z,19.99
2023-06-26T23:23:14.025Z,19.87
2023-06-26T23:25:42.857Z,19.92
2023-06-26T23:28:10.372Z,19.92
2023-06-26T23:30:42.538Z,19.90
2023-06-26T23:33:10.037Z,19.77
2023-06-26T23:35:37.826Z,19.69
2023-06-26T23:38:05.744Z,19.90
2023-06-26T23:40:34.012Z,19.67
2023-06-26T23:43:03.740Z,19.65
2023-06-26T23:45:32.743Z,19.73
2023-06-26T23:48:00.339Z,19.54
2023-06-26T23:50:28.038Z,19.40
2023-06-26T23:52:55.645Z,19.49
2023-06-26T23:55:23.433Z,19.20
2023-06-26T23:57:50.967Z,18.99
